sensor_id;sensor_type;location;lat;lon;timestamp;pressure;altitude;pressure_sealevel;temperature;humidity
70248;BME280;57641;51.416;5.506;2023-04-28T00:01:42;101403.31;;;15.30;50.38
70248;BME280;57641;51.416;5.506;2023-04-28T00:04:07;101402.63;;;15.36;49.61
70248;BME280;57641;51.416;5.506;2023-04-28T00:06:33;101402.81;;;15.27;49.77
70248;BME280;57641;51.416;5.506;2023-04-28T00:08:58;101391.75;;;15.21;51.86
70248;BME280;57641;51.416;5.506;2023-04-28T00:11:24;101386.38;;;15.21;52.79
70248;BME280;57641;51.416;5.506;2023-04-28T00:13:49;101390.38;;;15.17;52.56
70248;BME280;57641;51.416;5.506;2023-04-28T00:16:16;101387.06;;;15.15;51.66
70248;BME280;57641;51.416;5.506;2023-04-28T00:18:41;101387.88;;;15.24;50.27
70248;BME280;57641;51.416;5.506;2023-04-28T00:21:07;101389.38;;;15.18;50.48
70248;BME280;57641;51.416;5.506;2023-04-28T00:23:33;101381.00;;;15.13;51.45
70248;BME280;57641;51.416;5.506;2023-04-28T00:25:58;101374.47;;;15.00;53.63
70248;BME280;57641;51.416;5.506;2023-04-28T00:28:23;101375.31;;;15.00;53.56
70248;BME280;57641;51.416;5.506;2023-04-28T00:30:49;101372.63;;;15.00;53.04
70248;BME280;57641;51.416;5.506;2023-04-28T00:33:14;101373.28;;;15.02;53.15
70248;BME280;57641;51.416;5.506;2023-04-28T00:35:40;101369.59;;;14.87;53.33
70248;BME280;57641;51.416;5.506;2023-04-28T00:38:06;101363.91;;;14.98;54.02
70248;BME280;57641;51.416;5.506;2023-04-28T00:40:33;101354.50;;;14.94;53.66
70248;BME280;57641;51.416;5.506;2023-04-28T00:42:59;101346.47;;;14.94;53.53
70248;BME280;57641;51.416;5.506;2023-04-28T00:45:25;101344.78;;;14.93;53.70
70248;BME280;57641;51.416;5.506;2023-04-28T00:47:51;101348.13;;;14.95;53.52
70248;BME280;57641;51.416;5.506;2023-04-28T00:50:17;101345.13;;;14.90;53.88
70248;BME280;57641;51.416;5.506;2023-04-28T00:52:42;101333.19;;;14.93;53.40
70248;BME280;57641;51.416;5.506;2023-04-28T00:55:08;101324.47;;;14.99;52.64
70248;BME280;57641;51.416;5.506;2023-04-28T00:57:34;101319.28;;;14.81;52.70
70248;BME280;57641;51.416;5.506;2023-04-28T01:00:01;101331.19;;;14.87;52.87
70248;BME280;57641;51.416;5.506;2023-04-28T01:02:27;101322.81;;;14.90;52.23
70248;BME280;57641;51.416;5.506;2023-04-28T01:04:55;101322.63;;;14.99;50.79
70248;BME280;57641;51.416;5.506;2023-04-28T01:07:21;101308.69;;;15.04;50.15
70248;BME280;57641;51.416;5.506;2023-04-28T01:09:47;101302.13;;;15.06;49.66
70248;BME280;57641;51.416;5.506;2023-04-28T01:12:13;101303.81;;;14.99;50.89
70248;BME280;57641;51.416;5.506;2023-04-28T01:14:38;101298.97;;;14.95;51.31
70248;BME280;57641;51.416;5.506;2023-04-28T01:17:04;101302.13;;;14.98;51.56
70248;BME280;57641;51.416;5.506;2023-04-28T01:19:30;101305.00;;;14.89;51.82
70248;BME280;57641;51.416;5.506;2023-04-28T01:21:55;101301.81;;;14.93;50.73
70248;BME280;57641;51.416;5.506;2023-04-28T01:24:21;101302.50;;;14.95;50.59
70248;BME280;57641;51.416;5.506;2023-04-28T01:26:47;101303.69;;;14.85;50.98
70248;BME280;57641;51.416;5.506;2023-04-28T01:29:12;101307.53;;;14.90;51.26
70248;BME280;57641;51.416;5.506;2023-04-28T01:31:38;101302.31;;;14.89;51.39
70248;BME280;57641;51.416;5.506;2023-04-28T01:34:03;101306.19;;;14.86;51.45
70248;BME280;57641;51.416;5.506;2023-04-28T01:36:29;101296.13;;;14.88;50.84
70248;BME280;57641;51.416;5.506;2023-04-28T01:38:54;101293.28;;;14.90;51.15
70248;BME280;57641;51.416;5.506;2023-04-28T01:41:20;101289.06;;;14.87;51.08
70248;BME280;57641;51.416;5.506;2023-04-28T01:43:46;101286.38;;;14.95;51.51
70248;BME280;57641;51.416;5.506;2023-04-28T01:46:12;101290.41;;;14.91;50.46
70248;BME280;57641;51.416;5.506;2023-04-28T01:48:37;101291.44;;;14.90;51.12
70248;BME280;57641;51.416;5.506;2023-04-28T01:51:03;101284.03;;;14.92;51.23
70248;BME280;57641;51.416;5.506;2023-04-28T01:53:29;101284.91;;;14.85;50.71
70248;BME280;57641;51.416;5.506;2023-04-28T01:55:55;101278.66;;;14.92;50.73
70248;BME280;57641;51.416;5.506;2023-04-28T01:58:20;101280.34;;;14.93;51.13
70248;BME280;57641;51.416;5.506;2023-04-28T02:00:46;101266.06;;;14.93;50.99
70248;BME280;57641;51.416;5.506;2023-04-28T02:03:12;101264.59;;;14.90;51.39
70248;BME280;57641;51.416;5.506;2023-04-28T02:05:38;101256.50;;;14.98;51.22
70248;BME280;57641;51.416;5.506;2023-04-28T02:08:03;101267.59;;;14.95;50.92
70248;BME280;57641;51.416;5.506;2023-04-28T02:10:29;101269.06;;;14.98;50.50
70248;BME280;57641;51.416;5.506;2023-04-28T02:12:54;101268.59;;;14.94;51.06
70248;BME280;57641;51.416;5.506;2023-04-28T02:15:20;101268.44;;;14.96;50.22
70248;BME280;57641;51.416;5.506;2023-04-28T02:17:46;101272.13;;;14.87;51.69
70248;BME280;57641;51.416;5.506;2023-04-28T02:20:12;101274.81;;;14.95;51.38
70248;BME280;57641;51.416;5.506;2023-04-28T02:22:39;101263.72;;;14.98;50.76
70248;BME280;57641;51.416;5.506;2023-04-28T02:25:06;101250.31;;;14.90;52.43
70248;BME280;57641;51.416;5.506;2023-04-28T02:27:32;101241.63;;;14.79;52.48
70248;BME280;57641;51.416;5.506;2023-04-28T02:29:59;101238.75;;;14.89;53.15
70248;BME280;57641;51.416;5.506;2023-04-28T02:32:25;101235.38;;;14.87;51.97
70248;BME280;57641;51.416;5.506;2023-04-28T02:34:54;101225.16;;;14.91;51.79
70248;BME280;57641;51.416;5.506;2023-04-28T02:37:20;101231.53;;;14.90;52.24
70248;BME280;57641;51.416;5.506;2023-04-28T02:39:46;101222.63;;;14.89;53.15
70248;BME280;57641;51.416;5.506;2023-04-28T02:42:12;101203.84;;;14.89;53.33
70248;BME280;57641;51.416;5.506;2023-04-28T02:44:37;101202.63;;;14.92;52.90
70248;BME280;57641;51.416;5.506;2023-04-28T02:47:03;101187.56;;;14.91;52.72
70248;BME280;57641;51.416;5.506;2023-04-28T02:49:28;101174.72;;;15.09;51.69
70248;BME280;57641;51.416;5.506;2023-04-28T02:51:54;101166.13;;;15.21;50.95
70248;BME280;57641;51.416;5.506;2023-04-28T02:54:19;101171.19;;;15.08;51.58
70248;BME280;57641;51.416;5.506;2023-04-28T02:56:56;101163.84;;;15.02;52.07
70248;BME280;57641;51.416;5.506;2023-04-28T02:59:22;101155.25;;;15.07;51.95
70248;BME280;57641;51.416;5.506;2023-04-28T03:01:49;101164.25;;;14.83;53.33
70248;BME280;57641;51.416;5.506;2023-04-28T03:04:16;101167.38;;;14.48;53.91
70248;BME280;57641;51.416;5.506;2023-04-28T03:06:41;101180.44;;;14.34;54.45
70248;BME280;57641;51.416;5.506;2023-04-28T03:09:07;101185.81;;;14.51;55.03
70248;BME280;57641;51.416;5.506;2023-04-28T03:11:33;101180.44;;;14.59;54.34
70248;BME280;57641;51.416;5.506;2023-04-28T03:13:59;101179.41;;;14.60;55.10
70248;BME280;57641;51.416;5.506;2023-04-28T03:16:24;101179.94;;;14.63;54.50
70248;BME280;57641;51.416;5.506;2023-04-28T03:18:50;101175.72;;;14.69;54.36
70248;BME280;57641;51.416;5.506;2023-04-28T03:21:15;101174.19;;;14.74;54.57
70248;BME280;57641;51.416;5.506;2023-04-28T03:23:41;101174.34;;;14.73;55.23
70248;BME280;57641;51.416;5.506;2023-04-28T03:26:06;101174.84;;;14.76;54.46
70248;BME280;57641;51.416;5.506;2023-04-28T03:28:32;101178.84;;;14.80;54.82
70248;BME280;57641;51.416;5.506;2023-04-28T03:30:57;101175.84;;;14.84;54.87
70248;BME280;57641;51.416;5.506;2023-04-28T03:33:23;101178.34;;;14.85;54.39
70248;BME280;57641;51.416;5.506;2023-04-28T03:35:48;101180.69;;;14.88;53.60
70248;BME280;57641;51.416;5.506;2023-04-28T03:38:14;101171.63;;;14.89;53.37
70248;BME280;57641;51.416;5.506;2023-04-28T03:40:39;101178.16;;;14.87;54.05
70248;BME280;57641;51.416;5.506;2023-04-28T03:43:05;101169.78;;;14.90;53.56
70248;BME280;57641;51.416;5.506;2023-04-28T03:45:31;101177.47;;;14.93;53.87
70248;BME280;57641;51.416;5.506;2023-04-28T03:47:57;101179.00;;;14.95;54.30
70248;BME280;57641;51.416;5.506;2023-04-28T03:50:23;101177.47;;;14.93;54.60
70248;BME280;57641;51.416;5.506;2023-04-28T03:52:48;101165.88;;;14.92;55.02
70248;BME280;57641;51.416;5.506;2023-04-28T03:55:13;101160.19;;;14.95;55.19
70248;BME280;57641;51.416;5.506;2023-04-28T03:57:39;101163.88;;;14.94;55.09
70248;BME280;57641;51.416;5.506;2023-04-28T04:00:05;101157.31;;;14.97;55.17
70248;BME280;57641;51.416;5.506;2023-04-28T04:02:31;101146.78;;;14.95;55.53
70248;BME280;57641;51.416;5.506;2023-04-28T04:04:57;101144.72;;;14.97;55.30
70248;BME280;57641;51.416;5.506;2023-04-28T04:07:22;101145.94;;;14.95;55.45
70248;BME280;57641;51.416;5.506;2023-04-28T04:09:48;101142.88;;;14.98;55.38
70248;BME280;57641;51.416;5.506;2023-04-28T04:12:14;101147.06;;;15.00;54.90
70248;BME280;57641;51.416;5.506;2023-04-28T04:14:39;101145.56;;;14.98;55.17
70248;BME280;57641;51.416;5.506;2023-04-28T04:17:05;101146.09;;;14.93;55.46
70248;BME280;57641;51.416;5.506;2023-04-28T04:19:30;101147.09;;;14.92;55.06
70248;BME280;57641;51.416;5.506;2023-04-28T04:21:56;101143.09;;;14.96;54.85
70248;BME280;57641;51.416;5.506;2023-04-28T04:24:21;101148.63;;;14.95;55.02
70248;BME280;57641;51.416;5.506;2023-04-28T04:26:46;101146.56;;;15.05;54.89
70248;BME280;57641;51.416;5.506;2023-04-28T04:29:12;101143.88;;;14.97;55.12
70248;BME280;57641;51.416;5.506;2023-04-28T04:31:37;101145.72;;;15.04;55.37
70248;BME280;57641;51.416;5.506;2023-04-28T04:34:03;101139.66;;;15.02;55.17
70248;BME280;57641;51.416;5.506;2023-04-28T04:36:29;101137.81;;;15.11;54.49
70248;BME280;57641;51.416;5.506;2023-04-28T04:38:54;101124.91;;;15.29;53.62
70248;BME280;57641;51.416;5.506;2023-04-28T04:41:20;101130.22;;;15.14;54.77
70248;BME280;57641;51.416;5.506;2023-04-28T04:43:46;101128.09;;;15.02;55.43
70248;BME280;57641;51.416;5.506;2023-04-28T04:46:12;101123.88;;;15.07;55.50
70248;BME280;57641;51.416;5.506;2023-04-28T04:48:37;101119.63;;;15.13;55.49
70248;BME280;57641;51.416;5.506;2023-04-28T04:51:03;101116.97;;;15.13;55.08
70248;BME280;57641;51.416;5.506;2023-04-28T04:53:29;101116.63;;;15.16;54.84
70248;BME280;57641;51.416;5.506;2023-04-28T04:55:54;101114.56;;;15.18;54.74
70248;BME280;57641;51.416;5.506;2023-04-28T04:58:20;101105.34;;;15.20;54.91
70248;BME280;57641;51.416;5.506;2023-04-28T05:00:46;101106.19;;;15.21;54.71
70248;BME280;57641;51.416;5.506;2023-04-28T05:03:11;101100.13;;;15.19;55.49
70248;BME280;57641;51.416;5.506;2023-04-28T05:05:37;101112.94;;;15.17;55.42
70248;BME280;57641;51.416;5.506;2023-04-28T05:08:03;101118.31;;;15.17;55.72
70248;BME280;57641;51.416;5.506;2023-04-28T05:10:30;101118.47;;;15.15;55.86
70248;BME280;57641;51.416;5.506;2023-04-28T05:12:55;101106.88;;;15.15;55.86
70248;BME280;57641;51.416;5.506;2023-04-28T05:15:21;101108.38;;;15.17;55.88
70248;BME280;57641;51.416;5.506;2023-04-28T05:17:47;101107.03;;;15.21;55.96
70248;BME280;57641;51.416;5.506;2023-04-28T05:20:12;101100.81;;;15.21;56.37
70248;BME280;57641;51.416;5.506;2023-04-28T05:22:38;101104.41;;;15.36;55.93
70248;BME280;57641;51.416;5.506;2023-04-28T05:25:04;101107.66;;;15.23;56.35
70248;BME280;57641;51.416;5.506;2023-04-28T05:27:29;101118.84;;;15.35;56.61
70248;BME280;57641;51.416;5.506;2023-04-28T05:29:55;101121.53;;;15.35;56.21
70248;BME280;57641;51.416;5.506;2023-04-28T05:32:20;101123.34;;;15.43;56.71
70248;BME280;57641;51.416;5.506;2023-04-28T05:34:46;101114.28;;;15.44;56.50
70248;BME280;57641;51.416;5.506;2023-04-28T05:37:11;101116.44;;;15.48;56.32
70248;BME280;57641;51.416;5.506;2023-04-28T05:39:37;101121.28;;;15.53;56.37
70248;BME280;57641;51.416;5.506;2023-04-28T05:42:02;101102.66;;;15.51;56.56
70248;BME280;57641;51.416;5.506;2023-04-28T05:44:30;101099.97;;;15.51;56.44
70248;BME280;57641;51.416;5.506;2023-04-28T05:46:55;101107.13;;;15.59;56.63
70248;BME280;57641;51.416;5.506;2023-04-28T05:49:21;101108.78;;;15.60;56.54
70248;BME280;57641;51.416;5.506;2023-04-28T05:51:46;101107.44;;;15.64;56.84
70248;BME280;57641;51.416;5.506;2023-04-28T05:54:12;101107.22;;;15.66;57.04
70248;BME280;57641;51.416;5.506;2023-04-28T05:56:37;101105.03;;;15.69;57.36
70248;BME280;57641;51.416;5.506;2023-04-28T05:59:03;101111.72;;;15.73;57.31
70248;BME280;57641;51.416;5.506;2023-04-28T06:01:30;101103.78;;;15.80;56.94
70248;BME280;57641;51.416;5.506;2023-04-28T06:03:56;101113.69;;;15.79;57.24
70248;BME280;57641;51.416;5.506;2023-04-28T06:06:23;101114.44;;;15.88;57.29
70248;BME280;57641;51.416;5.506;2023-04-28T06:08:49;101121.69;;;15.87;57.60
70248;BME280;57641;51.416;5.506;2023-04-28T06:11:15;101125.03;;;15.89;57.53
70248;BME280;57641;51.416;5.506;2023-04-28T06:13:41;101123.34;;;15.88;58.11
70248;BME280;57641;51.416;5.506;2023-04-28T06:16:07;101113.91;;;15.92;58.33
70248;BME280;57641;51.416;5.506;2023-04-28T06:18:32;101123.09;;;15.98;58.29
70248;BME280;57641;51.416;5.506;2023-04-28T06:20:57;101113.81;;;15.86;59.13
70248;BME280;57641;51.416;5.506;2023-04-28T06:23:23;101111.59;;;15.89;59.28
70248;BME280;57641;51.416;5.506;2023-04-28T06:25:49;101109.66;;;15.98;59.94
70248;BME280;57641;51.416;5.506;2023-04-28T06:28:14;101106.41;;;16.02;59.79
70248;BME280;57641;51.416;5.506;2023-04-28T06:30:40;101103.00;;;16.09;59.92
70248;BME280;57641;51.416;5.506;2023-04-28T06:33:06;101094.66;;;16.18;59.99
70248;BME280;57641;51.416;5.506;2023-04-28T06:35:32;101106.47;;;16.17;60.92
70248;BME280;57641;51.416;5.506;2023-04-28T06:38:01;101106.38;;;16.25;61.28
70248;BME280;57641;51.416;5.506;2023-04-28T06:40:28;101106.00;;;16.28;61.50
70248;BME280;57641;51.416;5.506;2023-04-28T06:42:53;101102.03;;;16.39;61.16
70248;BME280;57641;51.416;5.506;2023-04-28T06:45:19;101097.34;;;16.03;62.51
70248;BME280;57641;51.416;5.506;2023-04-28T06:47:44;101100.97;;;16.25;62.42
70248;BME280;57641;51.416;5.506;2023-04-28T06:50:09;101099.53;;;16.37;62.47
70248;BME280;57641;51.416;5.506;2023-04-28T06:52:35;101100.81;;;16.41;62.89
70248;BME280;57641;51.416;5.506;2023-04-28T06:55:05;101101.00;;;16.40;62.79
70248;BME280;57641;51.416;5.506;2023-04-28T06:57:31;101095.53;;;16.48;62.58
70248;BME280;57641;51.416;5.506;2023-04-28T06:59:56;101095.34;;;16.50;62.70
70248;BME280;57641;51.416;5.506;2023-04-28T07:02:22;101086.91;;;16.53;62.62
70248;BME280;57641;51.416;5.506;2023-04-28T07:04:47;101087.63;;;16.46;62.93
70248;BME280;57641;51.416;5.506;2023-04-28T07:07:13;101074.09;;;16.55;63.09
70248;BME280;57641;51.416;5.506;2023-04-28T07:09:39;101070.88;;;16.59;63.02
70248;BME280;57641;51.416;5.506;2023-04-28T07:12:04;101076.31;;;16.66;63.55
70248;BME280;57641;51.416;5.506;2023-04-28T07:14:30;101076.06;;;16.75;63.42
70248;BME280;57641;51.416;5.506;2023-04-28T07:16:55;101089.31;;;16.77;63.36
70248;BME280;57641;51.416;5.506;2023-04-28T07:19:21;101086.91;;;16.67;64.11
70248;BME280;57641;51.416;5.506;2023-04-28T07:21:46;101087.38;;;16.85;63.72
70248;BME280;57641;51.416;5.506;2023-04-28T07:24:12;101093.50;;;16.79;64.25
70248;BME280;57641;51.416;5.506;2023-04-28T07:26:37;101097.22;;;16.78;63.91
70248;BME280;57641;51.416;5.506;2023-04-28T07:29:03;101092.66;;;16.79;63.74
70248;BME280;57641;51.416;5.506;2023-04-28T07:31:28;101094.59;;;16.85;63.25
70248;BME280;57641;51.416;5.506;2023-04-28T07:33:54;101091.34;;;16.89;63.66
70248;BME280;57641;51.416;5.506;2023-04-28T07:36:20;101088.84;;;16.73;64.09
70248;BME280;57641;51.416;5.506;2023-04-28T07:38:45;101090.50;;;16.89;64.00
70248;BME280;57641;51.416;5.506;2023-04-28T07:41:11;101095.81;;;16.82;63.66
70248;BME280;57641;51.416;5.506;2023-04-28T07:43:37;101098.56;;;16.45;65.31
70248;BME280;57641;51.416;5.506;2023-04-28T07:46:03;101100.56;;;16.80;64.15
70248;BME280;57641;51.416;5.506;2023-04-28T07:48:28;101103.06;;;16.38;65.39
70248;BME280;57641;51.416;5.506;2023-04-28T07:50:54;101097.69;;;16.67;64.84
70248;BME280;57641;51.416;5.506;2023-04-28T07:53:19;101101.53;;;16.50;65.22
70248;BME280;57641;51.416;5.506;2023-04-28T07:55:45;101103.50;;;16.41;66.05
70248;BME280;57641;51.416;5.506;2023-04-28T07:58:11;101100.97;;;16.11;66.87
70248;BME280;57641;51.416;5.506;2023-04-28T08:00:37;101100.63;;;16.58;65.92
70248;BME280;57641;51.416;5.506;2023-04-28T08:03:02;101101.09;;;16.17;66.94
70248;BME280;57641;51.416;5.506;2023-04-28T08:05:28;101098.84;;;16.35;66.79
70248;BME280;57641;51.416;5.506;2023-04-28T08:07:54;101104.63;;;16.32;67.28
70248;BME280;57641;51.416;5.506;2023-04-28T08:10:20;101096.25;;;16.57;67.13
70248;BME280;57641;51.416;5.506;2023-04-28T08:12:45;101104.00;;;16.60;66.54
70248;BME280;57641;51.416;5.506;2023-04-28T08:15:11;101090.88;;;16.57;66.38
70248;BME280;57641;51.416;5.506;2023-04-28T08:17:37;101109.81;;;16.48;67.68
70248;BME280;57641;51.416;5.506;2023-04-28T08:20:03;101100.63;;;16.58;67.42
70248;BME280;57641;51.416;5.506;2023-04-28T08:22:30;101098.97;;;16.27;67.98
70248;BME280;57641;51.416;5.506;2023-04-28T08:24:55;101099.25;;;16.32;68.21
70248;BME280;57641;51.416;5.506;2023-04-28T08:27:21;101102.44;;;16.65;68.11
70248;BME280;57641;51.416;5.506;2023-04-28T08:29:47;101107.16;;;16.78;67.53
70248;BME280;57641;51.416;5.506;2023-04-28T08:32:13;101095.69;;;16.17;69.12
70248;BME280;57641;51.416;5.506;2023-04-28T08:34:38;101105.66;;;16.61;68.44
70248;BME280;57641;51.416;5.506;2023-04-28T08:37:05;101100.06;;;16.47;68.69
70248;BME280;57641;51.416;5.506;2023-04-28T08:39:31;101105.19;;;16.86;67.75
70248;BME280;57641;51.416;5.506;2023-04-28T08:41:58;101102.06;;;16.68;67.96
70248;BME280;57641;51.416;5.506;2023-04-28T08:44:24;101108.06;;;16.85;67.99
70248;BME280;57641;51.416;5.506;2023-04-28T08:46:53;101107.81;;;16.80;68.52
70248;BME280;57641;51.416;5.506;2023-04-28T08:49:22;101102.88;;;16.83;68.28
70248;BME280;57641;51.416;5.506;2023-04-28T08:51:58;101103.75;;;17.05;68.32
70248;BME280;57641;51.416;5.506;2023-04-28T08:54:30;101101.78;;;17.14;68.55
70248;BME280;57641;51.416;5.506;2023-04-28T08:56:57;101107.88;;;17.01;67.69
70248;BME280;57641;51.416;5.506;2023-04-28T08:59:23;101107.81;;;16.65;68.96
70248;BME280;57641;51.416;5.506;2023-04-28T09:01:49;101113.34;;;17.08;68.70
70248;BME280;57641;51.416;5.506;2023-04-28T09:04:16;101105.97;;;17.16;68.27
70248;BME280;57641;51.416;5.506;2023-04-28T09:06:41;101107.94;;;16.93;69.42
70248;BME280;57641;51.416;5.506;2023-04-28T09:09:24;101115.34;;;17.20;68.50
70248;BME280;57641;51.416;5.506;2023-04-28T09:12:00;101111.19;;;17.18;68.97
70248;BME280;57641;51.416;5.506;2023-04-28T09:14:28;101113.88;;;17.03;69.90
70248;BME280;57641;51.416;5.506;2023-04-28T09:16:54;101102.16;;;17.11;68.84
70248;BME280;57641;51.416;5.506;2023-04-28T09:19:20;101102.66;;;17.36;68.64
70248;BME280;57641;51.416;5.506;2023-04-28T09:21:48;101103.88;;;17.33;68.57
70248;BME280;57641;51.416;5.506;2023-04-28T09:24:34;101095.66;;;17.41;68.55
70248;BME280;57641;51.416;5.506;2023-04-28T09:27:05;101105.03;;;17.09;69.75
70248;BME280;57641;51.416;5.506;2023-04-28T09:29:37;101105.56;;;17.34;69.46
70248;BME280;57641;51.416;5.506;2023-04-28T09:32:21;101099.47;;;17.11;69.01
70248;BME280;57641;51.416;5.506;2023-04-28T09:34:52;101113.13;;;17.09;69.57
70248;BME280;57641;51.416;5.506;2023-04-28T09:37:23;101106.38;;;16.99;69.80
70248;BME280;57641;51.416;5.506;2023-04-28T09:39:50;101110.75;;;17.00;70.54
70248;BME280;57641;51.416;5.506;2023-04-28T09:42:36;101111.03;;;16.46;71.50
70248;BME280;57641;51.416;5.506;2023-04-28T09:45:07;101111.66;;;17.07;70.39
70248;BME280;57641;51.416;5.506;2023-04-28T09:47:44;101113.22;;;17.16;70.46
70248;BME280;57641;51.416;5.506;2023-04-28T09:50:13;101110.47;;;17.30;69.06
70248;BME280;57641;51.416;5.506;2023-04-28T09:52:47;101119.03;;;17.19;69.69
70248;BME280;57641;51.416;5.506;2023-04-28T09:55:21;101121.06;;;17.32;69.48
70248;BME280;57641;51.416;5.506;2023-04-28T09:57:48;101120.19;;;17.46;69.08
70248;BME280;57641;51.416;5.506;2023-04-28T10:00:15;101110.63;;;17.44;69.36
70248;BME280;57641;51.416;5.506;2023-04-28T10:02:42;101117.22;;;17.41;69.13
70248;BME280;57641;51.416;5.506;2023-04-28T10:05:08;101116.91;;;17.51;69.51
70248;BME280;57641;51.416;5.506;2023-04-28T10:07:34;101118.50;;;17.60;68.46
70248;BME280;57641;51.416;5.506;2023-04-28T10:10:00;101121.28;;;17.52;69.00
70248;BME280;57641;51.416;5.506;2023-04-28T10:12:26;101114.72;;;17.76;68.47
70248;BME280;57641;51.416;5.506;2023-04-28T10:14:52;101120.28;;;17.74;68.13
70248;BME280;57641;51.416;5.506;2023-04-28T10:17:22;101111.69;;;17.64;68.37
70248;BME280;57641;51.416;5.506;2023-04-28T10:19:51;101106.03;;;17.80;68.18
70248;BME280;57641;51.416;5.506;2023-04-28T10:27:46;101105.00;;;17.81;67.70
70248;BME280;57641;51.416;5.506;2023-04-28T10:30:16;101113.03;;;17.75;68.44
70248;BME280;57641;51.416;5.506;2023-04-28T10:32:43;101118.16;;;17.91;67.33
70248;BME280;57641;51.416;5.506;2023-04-28T10:38:03;101105.59;;;18.04;67.61
70248;BME280;57641;51.416;5.506;2023-04-28T10:40:36;101113.97;;;17.88;67.72
70248;BME280;57641;51.416;5.506;2023-04-28T10:43:03;101103.78;;;18.11;67.30
70248;BME280;57641;51.416;5.506;2023-04-28T10:56:18;101103.16;;;18.09;66.87
70248;BME280;57641;51.416;5.506;2023-04-28T10:58:46;101093.00;;;18.39;66.43
70248;BME280;57641;51.416;5.506;2023-04-28T11:06:25;101080.69;;;18.65;65.32
70248;BME280;57641;51.416;5.506;2023-04-28T11:08:51;101079.25;;;18.69;64.91
70248;BME280;57641;51.416;5.506;2023-04-28T11:13:47;101083.53;;;19.04;64.45
70248;BME280;57641;51.416;5.506;2023-04-28T11:16:14;101078.16;;;18.97;63.97
70248;BME280;57641;51.416;5.506;2023-04-28T11:21:14;101071.41;;;18.80;63.97
70248;BME280;57641;51.416;5.506;2023-04-28T11:23:39;101073.97;;;18.95;62.60
70248;BME280;57641;51.416;5.506;2023-04-28T11:26:05;101068.31;;;18.83;63.28
70248;BME280;57641;51.416;5.506;2023-04-28T11:28:31;101065.06;;;19.14;62.60
70248;BME280;57641;51.416;5.506;2023-04-28T11:31:12;101074.19;;;19.00;62.29
70248;BME280;57641;51.416;5.506;2023-04-28T11:33:40;101071.09;;;19.03;63.41
70248;BME280;57641;51.416;5.506;2023-04-28T11:36:06;101068.59;;;19.02;63.37
70248;BME280;57641;51.416;5.506;2023-04-28T11:38:42;101071.09;;;19.03;62.14
70248;BME280;57641;51.416;5.506;2023-04-28T11:41:08;101068.34;;;18.90;62.75
70248;BME280;57641;51.416;5.506;2023-04-28T11:43:35;101080.69;;;19.12;62.55
70248;BME280;57641;51.416;5.506;2023-04-28T11:46:00;101068.63;;;19.21;62.46
70248;BME280;57641;51.416;5.506;2023-04-28T11:48:26;101079.88;;;19.18;62.41
70248;BME280;57641;51.416;5.506;2023-04-28T11:50:52;101075.50;;;19.17;61.76
70248;BME280;57641;51.416;5.506;2023-04-28T11:53:18;101079.59;;;19.00;63.38
70248;BME280;57641;51.416;5.506;2023-04-28T11:55:44;101084.16;;;18.99;62.49
70248;BME280;57641;51.416;5.506;2023-04-28T11:58:19;101082.25;;;18.93;64.01
70248;BME280;57641;51.416;5.506;2023-04-28T12:01:08;101091.94;;;18.40;66.40
70248;BME280;57641;51.416;5.506;2023-04-28T12:03:46;101093.97;;;18.60;65.75
70248;BME280;57641;51.416;5.506;2023-04-28T12:06:18;101094.00;;;18.66;65.21
70248;BME280;57641;51.416;5.506;2023-04-28T12:08:44;101100.44;;;18.65;65.42
70248;BME280;57641;51.416;5.506;2023-04-28T12:11:11;101105.38;;;18.62;66.32
70248;BME280;57641;51.416;5.506;2023-04-28T12:13:38;101104.63;;;18.12;68.80
70248;BME280;57641;51.416;5.506;2023-04-28T12:16:05;101099.59;;;18.65;67.69
70248;BME280;57641;51.416;5.506;2023-04-28T12:18:32;101102.16;;;18.79;66.91
70248;BME280;57641;51.416;5.506;2023-04-28T12:20:58;101103.88;;;18.87;66.09
70248;BME280;57641;51.416;5.506;2023-04-28T12:23:34;101105.69;;;18.80;66.11
70248;BME280;57641;51.416;5.506;2023-04-28T12:26:01;101107.59;;;18.86;66.51
70248;BME280;57641;51.416;5.506;2023-04-28T12:28:37;101115.94;;;18.56;67.18
70248;BME280;57641;51.416;5.506;2023-04-28T12:31:04;101116.19;;;18.62;66.23
70248;BME280;57641;51.416;5.506;2023-04-28T12:33:30;101107.16;;;18.82;65.82
70248;BME280;57641;51.416;5.506;2023-04-28T12:35:58;101108.91;;;18.96;65.37
70248;BME280;57641;51.416;5.506;2023-04-28T12:38:25;101120.66;;;18.48;65.86
70248;BME280;57641;51.416;5.506;2023-04-28T12:40:51;101122.09;;;18.44;65.88
70248;BME280;57641;51.416;5.506;2023-04-28T12:43:17;101121.69;;;18.75;65.65
70248;BME280;57641;51.416;5.506;2023-04-28T12:45:43;101127.53;;;18.50;65.48
70248;BME280;57641;51.416;5.506;2023-04-28T12:48:09;101125.72;;;18.58;65.04
70248;BME280;57641;51.416;5.506;2023-04-28T12:50:35;101140.06;;;17.60;67.95
70248;BME280;57641;51.416;5.506;2023-04-28T12:53:00;101134.59;;;17.75;67.91
70248;BME280;57641;51.416;5.506;2023-04-28T12:55:26;101129.06;;;17.61;67.99
70248;BME280;57641;51.416;5.506;2023-04-28T12:57:51;101122.66;;;17.62;66.94
70248;BME280;57641;51.416;5.506;2023-04-28T13:00:17;101144.03;;;17.64;66.90
70248;BME280;57641;51.416;5.506;2023-04-28T13:02:47;101137.22;;;17.68;67.11
70248;BME280;57641;51.416;5.506;2023-04-28T13:05:13;101135.31;;;17.83;66.28
70248;BME280;57641;51.416;5.506;2023-04-28T13:07:39;101159.25;;;17.36;67.22
70248;BME280;57641;51.416;5.506;2023-04-28T13:10:05;101147.69;;;17.78;65.12
70248;BME280;57641;51.416;5.506;2023-04-28T13:12:32;101152.13;;;17.13;67.77
70248;BME280;57641;51.416;5.506;2023-04-28T13:15:00;101157.03;;;17.75;67.10
70248;BME280;57641;51.416;5.506;2023-04-28T13:17:26;101166.38;;;18.00;65.01